createdAt,value
2023-05-19T00:01:48.509Z,98813.47
2023-05-19T00:04:15.497Z,98806.38
2023-05-19T00:06:42.566Z,98812.56
2023-05-19T00:09:10.217Z,98802.97
2023-05-19T00:11:39.100Z,98810.34
2023-05-19T00:14:08.010Z,98810.88
2023-05-19T00:16:35.116Z,98807.22
2023-05-19T00:19:04.053Z,98804.59
2023-05-19T00:21:32.185Z,98803.72
2023-05-19T00:23:59.278Z,98798.44
2023-05-19T00:26:28.181Z,98797.38
2023-05-19T00:28:59.796Z,98802.78
2023-05-19T00:31:26.539Z,98795.72
2023-05-19T00:33:53.330Z,98806.75
2023-05-19T00:36:20.009Z,98802.78
2023-05-19T00:38:46.579Z,98789.66
2023-05-19T00:41:13.172Z,98788.78
2023-05-19T00:43:39.874Z,98788.34
2023-05-19T00:46:07.450Z,98789.09
2023-05-19T00:48:34.279Z,98786.38
2023-05-19T00:51:05.285Z,98783.63
2023-05-19T00:53:35.459Z,98785.97
2023-05-19T00:56:03.170Z,98784.22
2023-05-19T00:58:30.903Z,98782.13
2023-05-19T01:01:07.316Z,98783.03
2023-05-19T01:03:35.603Z,98782.97
2023-05-19T01:06:06.355Z,98778.25
2023-05-19T01:08:33.955Z,98777.09
2023-05-19T01:11:00.883Z,98775.50
2023-05-19T01:13:28.583Z,98780.78
2023-05-19T01:16:00.036Z,98778.16
2023-05-19T01:18:35.731Z,98772.69
2023-05-19T01:21:30.426Z,98773.09
2023-05-19T01:24:18.271Z,98781.13
2023-05-19T01:26:59.500Z,98779.59
2023-05-19T01:30:03.424Z,98782.72
2023-05-19T01:32:30.731Z,98786.56
2023-05-19T01:34:58.357Z,98785.06
2023-05-19T01:37:25.813Z,98792.00
2023-05-19T01:39:52.357Z,98783.19
2023-05-19T01:42:20.183Z,98791.59
2023-05-19T01:44:46.994Z,98787.75
2023-05-19T01:47:14.396Z,98793.22
2023-05-19T01:49:42.053Z,98790.72
2023-05-19T01:52:09.124Z,98790.41
2023-05-19T01:54:35.737Z,98793.50
2023-05-19T01:57:08.245Z,98787.16
2023-05-19T01:59:41.343Z,98789.25
2023-05-19T02:02:26.998Z,98782.31
2023-05-19T02:04:56.356Z,98785.25
2023-05-19T02:07:32.466Z,98786.56
2023-05-19T02:10:07.242Z,98780.78
2023-05-19T02:12:40.109Z,98790.69
2023-05-19T02:15:10.034Z,98784.31
2023-05-19T02:17:41.394Z,98788.88
2023-05-19T02:20:10.583Z,98785.91
2023-05-19T02:22:37.156Z,98784.88
2023-05-19T02:25:03.846Z,98787.34
2023-05-19T02:27:33.835Z,98786.16
2023-05-19T02:30:03.419Z,98783.63
2023-05-19T02:32:31.518Z,98785.13
2023-05-19T02:34:58.098Z,98785.72
2023-05-19T02:37:25.213Z,98784.88
2023-05-19T02:39:51.769Z,98791.16
2023-05-19T02:42:18.679Z,98780.06
2023-05-19T02:44:45.305Z,98787.19
2023-05-19T02:47:13.076Z,98781.00
2023-05-19T02:49:40.062Z,98774.72
2023-05-19T02:52:07.000Z,98782.56
2023-05-19T02:54:34.370Z,98778.03
2023-05-19T02:57:01.416Z,98774.38
2023-05-19T02:59:28.053Z,98778.34
2023-05-19T03:02:00.123Z,98771.84
2023-05-19T03:04:27.479Z,98770.47
2023-05-19T03:06:57.296Z,98764.63
2023-05-19T03:09:23.950Z,98768.03
2023-05-19T03:11:50.519Z,98766.47
2023-05-19T03:14:18.590Z,98761.81
2023-05-19T03:16:45.326Z,98767.16
2023-05-19T03:19:12.433Z,98769.16
2023-05-19T03:21:39.208Z,98766.47
2023-05-19T03:24:06.647Z,98775.44
2023-05-19T03:26:33.366Z,98771.41
2023-05-19T03:29:00.015Z,98767.31
2023-05-19T03:31:26.833Z,98765.84
2023-05-19T03:33:53.770Z,98770.22
2023-05-19T03:36:22.199Z,98768.84
2023-05-19T03:38:48.880Z,98771.75
2023-05-19T03:41:15.881Z,98769.72
2023-05-19T03:43:42.481Z,98776.78
2023-05-19T03:46:09.917Z,98774.88
2023-05-19T03:48:55.036Z,98767.13
2023-05-19T03:51:38.829Z,98773.50
2023-05-19T03:54:17.978Z,98773.22
2023-05-19T03:56:44.568Z,98774.94
2023-05-19T03:59:12.269Z,98783.31
2023-05-19T04:01:38.791Z,98780.22
2023-05-19T04:04:05.721Z,98785.34
2023-05-19T04:06:32.336Z,98786.03
2023-05-19T04:08:58.943Z,98786.50
2023-05-19T04:11:25.568Z,98790.28
2023-05-19T04:13:52.102Z,98784.75
2023-05-19T04:16:18.789Z,98789.47
2023-05-19T04:18:46.396Z,98787.41
2023-05-19T04:21:13.355Z,98785.84
2023-05-19T04:23:39.917Z,98783.88
2023-05-19T04:26:06.865Z,98791.94
2023-05-19T04:28:36.648Z,98793.81
2023-05-19T04:31:03.489Z,98789.72
2023-05-19T04:33:30.154Z,98788.56
2023-05-19T04:35:58.324Z,98795.94
2023-05-19T04:38:24.810Z,98793.91
2023-05-19T04:40:52.001Z,98796.91
2023-05-19T04:43:19.372Z,98793.41
2023-05-19T04:45:46.555Z,98796.28
2023-05-19T04:48:13.916Z,98800.81
2023-05-19T04:50:42.218Z,98801.81
2023-05-19T04:53:09.666Z,98799.81
2023-05-19T04:55:37.647Z,98794.41
2023-05-19T04:58:05.016Z,98796.03
2023-05-19T05:00:33.026Z,98798.44
2023-05-19T05:03:07.187Z,98795.22
2023-05-19T05:05:34.982Z,98792.69
2023-05-19T05:08:01.522Z,98797.13
2023-05-19T05:10:32.086Z,98794.88
2023-05-19T05:12:59.213Z,98797.94
2023-05-19T05:15:28.776Z,98802.28
2023-05-19T05:17:57.858Z,98800.19
2023-05-19T05:20:25.151Z,98797.22
2023-05-19T05:22:52.032Z,98800.63
2023-05-19T05:25:19.773Z,98796.38
2023-05-19T05:27:46.416Z,98799.25
2023-05-19T05:30:13.896Z,98791.88
2023-05-19T05:32:41.562Z,98791.22
2023-05-19T05:35:16.085Z,98789.88
2023-05-19T05:37:42.881Z,98789.72
2023-05-19T05:40:09.749Z,98797.28
2023-05-19T05:42:36.473Z,98788.97
2023-05-19T05:45:03.116Z,98792.19
2023-05-19T05:47:30.125Z,98787.69
2023-05-19T05:49:57.037Z,98795.22
2023-05-19T05:52:27.795Z,98803.09
2023-05-19T05:54:55.042Z,98800.34
2023-05-19T05:57:23.164Z,98802.81
2023-05-19T05:59:50.762Z,98796.00
2023-05-19T06:02:17.936Z,98791.50
2023-05-19T06:04:44.564Z,98797.25
2023-05-19T06:07:11.120Z,98800.81
2023-05-19T06:09:38.745Z,98802.00
2023-05-19T06:12:07.036Z,98797.69
2023-05-19T06:14:38.922Z,98801.00
2023-05-19T06:17:19.591Z,98800.59
2023-05-19T06:19:46.151Z,98797.38
2023-05-19T06:22:12.702Z,98801.75
2023-05-19T06:24:39.699Z,98800.44
2023-05-19T06:27:08.519Z,98788.50
2023-05-19T06:29:35.103Z,98790.59
2023-05-19T06:32:04.435Z,98786.19
2023-05-19T06:34:31.241Z,98787.66
2023-05-19T06:36:58.111Z,98790.97
2023-05-19T06:39:24.980Z,98793.94
2023-05-19T06:41:51.599Z,98793.13
2023-05-19T06:44:40.932Z,98789.13
2023-05-19T06:47:11.191Z,98791.78
2023-05-19T06:49:38.116Z,98791.50
2023-05-19T06:52:04.913Z,98786.34
2023-05-19T06:54:31.582Z,98786.47
2023-05-19T06:56:58.124Z,98786.63
2023-05-19T06:59:24.685Z,98786.03
2023-05-19T07:01:51.458Z,98790.84
2023-05-19T07:04:18.363Z,98787.81
2023-05-19T07:06:44.902Z,98789.53
2023-05-19T07:09:11.579Z,98788.53
2023-05-19T07:11:39.575Z,98792.13
2023-05-19T07:14:06.663Z,98785.47
2023-05-19T07:16:33.301Z,98794.44
2023-05-19T07:18:59.955Z,98794.72
2023-05-19T07:21:26.569Z,98781.88
2023-05-19T07:23:53.157Z,98790.63
2023-05-19T07:26:19.729Z,98790.03
2023-05-19T07:28:46.300Z,98795.84
2023-05-19T07:31:12.882Z,98783.16
2023-05-19T07:33:39.463Z,98788.97
2023-05-19T07:36:06.195Z,98782.16
2023-05-19T07:38:34.748Z,98780.69
2023-05-19T07:41:02.115Z,98779.28
2023-05-19T07:43:28.825Z,98786.31
2023-05-19T07:45:56.390Z,98782.31
2023-05-19T07:48:25.583Z,98780.50
2023-05-19T07:50:52.745Z,98785.75
2023-05-19T07:53:19.860Z,98784.47
2023-05-19T07:55:46.436Z,98773.88
2023-05-19T07:58:13.008Z,98774.47
2023-05-19T08:00:39.591Z,98760.09
2023-05-19T08:03:07.844Z,98776.06
2023-05-19T08:05:35.188Z,98763.38
2023-05-19T08:08:02.988Z,98765.84
2023-05-19T08:10:29.467Z,98768.16
2023-05-19T08:12:56.036Z,98769.78
2023-05-19T08:15:22.578Z,98763.47
2023-05-19T08:17:49.213Z,98764.91
2023-05-19T08:20:15.970Z,98768.00
2023-05-19T08:22:42.842Z,98761.88
2023-05-19T08:25:09.593Z,98752.06
2023-05-19T08:27:36.792Z,98754.00
2023-05-19T08:30:03.478Z,98755.22
2023-05-19T08:32:30.083Z,98755.16
2023-05-19T08:34:56.689Z,98754.28
2023-05-19T08:37:23.245Z,98749.00
2023-05-19T08:39:49.845Z,98742.06
2023-05-19T08:42:16.464Z,98747.00
2023-05-19T08:44:43.978Z,98749.22
2023-05-19T08:47:13.972Z,98747.00
2023-05-19T08:49:47.348Z,98750.75
2023-05-19T08:52:42.388Z,98748.41
2023-05-19T08:55:11.557Z,98746.44
2023-05-19T08:57:38.622Z,98746.25
2023-05-19T09:00:11.726Z,98747.63
2023-05-19T09:02:50.297Z,98748.03
2023-05-19T09:05:25.331Z,98752.91
2023-05-19T09:07:51.927Z,98747.56
2023-05-19T09:10:18.488Z,98750.41
2023-05-19T09:12:47.450Z,98739.16
2023-05-19T09:15:17.524Z,98738.78
2023-05-19T09:17:45.881Z,98732.03
2023-05-19T09:20:12.971Z,98739.97
2023-05-19T09:22:47.216Z,98743.94
2023-05-19T09:25:20.863Z,98736.84
2023-05-19T09:27:48.653Z,98740.47
2023-05-19T09:30:18.441Z,98742.38
2023-05-19T09:32:47.155Z,98737.91
2023-05-19T09:35:13.916Z,98742.84
2023-05-19T09:37:41.437Z,98744.44
2023-05-19T09:40:11.075Z,98741.59
2023-05-19T09:42:38.777Z,98740.19
2023-05-19T09:45:06.809Z,98737.38
2023-05-19T09:47:40.020Z,98738.56
2023-05-19T09:50:10.952Z,98738.72
2023-05-19T09:52:43.785Z,98730.09
2023-05-19T09:55:12.665Z,98731.56
2023-05-19T09:57:40.217Z,98728.22
2023-05-19T10:00:19.560Z,98729.00
2023-05-19T10:02:47.239Z,98732.50
2023-05-19T10:05:17.018Z,98736.63
2023-05-19T10:07:48.619Z,98730.28
2023-05-19T10:10:15.749Z,98727.94
2023-05-19T10:12:42.701Z,98728.00
2023-05-19T10:15:13.362Z,98723.81
2023-05-19T10:17:41.176Z,98722.03
2023-05-19T10:20:12.503Z,98725.75
2023-05-19T10:22:40.343Z,98722.94
2023-05-19T10:25:07.120Z,98723.81
2023-05-19T10:27:36.811Z,98718.03
2023-05-19T10:30:12.414Z,98724.31
2023-05-19T10:32:41.374Z,98722.00
2023-05-19T10:35:50.909Z,98728.56
2023-05-19T10:38:43.091Z,98720.44
2023-05-19T10:41:18.674Z,98719.13
2023-05-19T10:44:30.176Z,98719.66
2023-05-19T10:46:57.272Z,98713.63
2023-05-19T10:49:24.258Z,98710.81
2023-05-19T10:51:52.257Z,98707.63
2023-05-19T10:54:39.119Z,98715.09
2023-05-19T10:57:07.041Z,98712.44
2023-05-19T10:59:35.618Z,98714.34
2023-05-19T11:02:08.917Z,98713.59
2023-05-19T11:04:53.563Z,98709.94
2023-05-19T11:07:21.712Z,98710.56
2023-05-19T11:09:52.263Z,98710.03
2023-05-19T11:12:24.779Z,98708.81
2023-05-19T11:14:55.031Z,98713.50
2023-05-19T11:17:22.366Z,98706.78
2023-05-19T11:19:54.836Z,98705.81
2023-05-19T11:22:27.305Z,98705.06
2023-05-19T11:24:57.251Z,98711.78
2023-05-19T11:27:31.815Z,98707.03
2023-05-19T11:30:00.530Z,98703.47
2023-05-19T11:32:31.222Z,98711.16
2023-05-19T11:34:58.018Z,98707.78
2023-05-19T11:37:24.721Z,98702.84
2023-05-19T11:39:52.223Z,98706.41
2023-05-19T11:42:19.294Z,98707.63
2023-05-19T11:44:46.412Z,98707.41
2023-05-19T11:47:14.001Z,98698.31
2023-05-19T11:49:45.296Z,98702.69
2023-05-19T11:52:11.992Z,98699.81
2023-05-19T11:54:39.340Z,98702.25
2023-05-19T11:57:06.060Z,98703.13
2023-05-19T11:59:35.615Z,98695.16
2023-05-19T12:02:27.789Z,98695.44
2023-05-19T12:04:54.932Z,98691.00
2023-05-19T12:07:25.087Z,98693.22
2023-05-19T12:09:52.318Z,98689.44
2023-05-19T12:12:22.770Z,98687.72
2023-05-19T12:14:53.327Z,98686.88
2023-05-19T12:17:21.288Z,98679.41
2023-05-19T12:19:48.974Z,98678.56
2023-05-19T12:22:16.593Z,98686.13
2023-05-19T12:24:44.306Z,98682.00
2023-05-19T12:27:14.069Z,98676.59
2023-05-19T12:29:41.047Z,98685.72
2023-05-19T12:32:08.429Z,98690.50
2023-05-19T12:34:38.801Z,98693.44
2023-05-19T12:37:06.178Z,98686.84
2023-05-19T12:39:32.789Z,98688.78
2023-05-19T12:42:09.539Z,98687.44
2023-05-19T12:44:42.741Z,98695.88
2023-05-19T12:47:09.289Z,98695.03
2023-05-19T12:49:35.917Z,98693.78
2023-05-19T12:52:11.824Z,98695.38
2023-05-19T12:54:40.964Z,98690.06
2023-05-19T12:57:07.683Z,98691.03
2023-05-19T12:59:38.705Z,98687.38
2023-05-19T13:02:06.835Z,98687.28
2023-05-19T13:04:33.533Z,98687.75
2023-05-19T13:07:00.065Z,98696.44
2023-05-19T13:09:27.879Z,98689.53
2023-05-19T13:11:54.764Z,98683.47
2023-05-19T13:14:21.809Z,98683.41
2023-05-19T13:16:48.952Z,98685.06
2023-05-19T13:19:25.262Z,98679.75
2023-05-19T13:21:52.767Z,98682.22
2023-05-19T13:24:19.399Z,98684.88
2023-05-19T13:26:46.004Z,98678.41
2023-05-19T13:29:12.706Z,98671.47
2023-05-19T13:31:39.413Z,98675.88
2023-05-19T13:34:05.973Z,98672.66
2023-05-19T13:36:36.480Z,98668.03
2023-05-19T13:39:03.262Z,98670.72
2023-05-19T13:41:29.855Z,98669.44
2023-05-19T13:43:58.850Z,98666.56
2023-05-19T13:46:36.667Z,98666.06
2023-05-19T13:49:10.438Z,98659.22
2023-05-19T13:51:37.658Z,98662.66
2023-05-19T13:54:04.952Z,98665.34
2023-05-19T13:56:31.745Z,98666.31
2023-05-19T13:58:58.496Z,98662.41
2023-05-19T14:01:29.483Z,98662.28
2023-05-19T14:03:58.444Z,98660.22
2023-05-19T14:06:25.087Z,98648.72
2023-05-19T14:08:51.613Z,98654.81
2023-05-19T14:11:25.207Z,98654.56
2023-05-19T14:13:52.860Z,98645.28
2023-05-19T14:16:20.394Z,98651.03
2023-05-19T14:18:47.482Z,98638.19
2023-05-19T14:21:14.122Z,98647.13
2023-05-19T14:23:40.745Z,98649.22
2023-05-19T14:26:07.354Z,98647.97
2023-05-19T14:28:34.006Z,98637.06
2023-05-19T14:31:00.659Z,98638.28
2023-05-19T14:33:27.253Z,98638.66
2023-05-19T14:35:53.993Z,98632.69
2023-05-19T14:38:20.641Z,98640.84
2023-05-19T14:40:48.464Z,98639.66
2023-05-19T14:43:15.063Z,98639.66
2023-05-19T14:45:44.154Z,98638.91
2023-05-19T14:48:13.428Z,98643.81
2023-05-19T14:50:40.039Z,98647.75
2023-05-19T14:53:06.560Z,98642.84
2023-05-19T14:55:33.112Z,98645.66
2023-05-19T14:57:59.712Z,98645.78
2023-05-19T15:00:26.908Z,98643.31
2023-05-19T15:02:54.074Z,98653.09
2023-05-19T15:05:20.735Z,98650.19
2023-05-19T15:07:47.263Z,98644.53
2023-05-19T15:10:13.800Z,98640.16
2023-05-19T15:12:40.441Z,98641.63
2023-05-19T15:15:07.661Z,98636.47
2023-05-19T15:17:34.255Z,98635.50
2023-05-19T15:20:00.979Z,98628.16
2023-05-19T15:22:27.640Z,98628.41
2023-05-19T15:24:55.305Z,98624.00
2023-05-19T15:27:22.474Z,98628.47
2023-05-19T15:29:49.775Z,98622.72
2023-05-19T15:32:16.352Z,98619.00
2023-05-19T15:34:42.975Z,98620.88
2023-05-19T15:37:09.608Z,98618.22
2023-05-19T15:39:36.111Z,98617.19
2023-05-19T15:42:02.691Z,98618.97
2023-05-19T15:44:29.997Z,98617.75
2023-05-19T15:46:56.519Z,98608.31
2023-05-19T15:49:25.035Z,98610.59
2023-05-19T15:51:51.693Z,98607.25
2023-05-19T15:54:18.219Z,98604.94
2023-05-19T15:56:44.752Z,98601.69
2023-05-19T15:59:11.245Z,98605.38
2023-05-19T16:01:37.838Z,98602.22
2023-05-19T16:04:04.680Z,98599.25
2023-05-19T16:06:31.613Z,98585.78
2023-05-19T16:08:58.178Z,98594.34
2023-05-19T16:11:24.776Z,98586.00
2023-05-19T16:13:51.320Z,98581.88
2023-05-19T16:16:18.775Z,98582.13
2023-05-19T16:18:45.507Z,98581.22
2023-05-19T16:21:12.137Z,98579.28
2023-05-19T16:23:38.679Z,98572.72
2023-05-19T16:26:05.323Z,98564.19
2023-05-19T16:28:32.443Z,98566.28
2023-05-19T16:31:00.159Z,98557.84
2023-05-19T16:33:27.412Z,98567.94
2023-05-19T16:35:54.030Z,98562.44
2023-05-19T16:38:20.715Z,98562.00
2023-05-19T16:40:47.256Z,98556.97
2023-05-19T16:43:13.838Z,98564.94
2023-05-19T16:45:40.599Z,98563.16
2023-05-19T16:48:07.183Z,98556.81
2023-05-19T16:50:34.033Z,98554.13
2023-05-19T16:53:00.922Z,98551.09
2023-05-19T16:55:27.433Z,98552.19
2023-05-19T16:57:53.971Z,98544.56
2023-05-19T17:00:20.665Z,98544.69
2023-05-19T17:02:47.366Z,98546.88
2023-05-19T17:05:14.091Z,98553.56
2023-05-19T17:07:40.606Z,98552.88
2023-05-19T17:10:07.651Z,98554.38
2023-05-19T17:12:34.312Z,98559.94
2023-05-19T17:15:01.175Z,98552.75
2023-05-19T17:17:27.730Z,98548.69
2023-05-19T17:19:54.295Z,98547.03
2023-05-19T17:22:20.885Z,98543.00
2023-05-19T17:24:47.451Z,98543.66
2023-05-19T17:27:15.045Z,98542.78
2023-05-19T17:29:41.630Z,98537.09
2023-05-19T17:32:08.289Z,98543.66
2023-05-19T17:34:34.961Z,98542.44
2023-05-19T17:37:01.553Z,98539.38
2023-05-19T17:39:28.369Z,98548.38
2023-05-19T17:41:54.950Z,98534.84
2023-05-19T17:44:21.522Z,98531.38
2023-05-19T17:46:48.555Z,98539.91
2023-05-19T17:49:15.731Z,98531.34
2023-05-19T17:51:42.476Z,98537.91
2023-05-19T17:54:09.173Z,98532.03
2023-05-19T17:56:37.442Z,98539.47
2023-05-19T17:59:04.111Z,98531.91
2023-05-19T18:01:30.973Z,98529.69
2023-05-19T18:03:57.860Z,98529.13
2023-05-19T18:06:24.922Z,98529.13
2023-05-19T18:08:52.650Z,98529.03
2023-05-19T18:11:19.271Z,98531.34
2023-05-19T18:13:45.955Z,98529.78
2023-05-19T18:16:12.887Z,98536.25
2023-05-19T18:18:43.212Z,98536.25
2023-05-19T18:21:14.309Z,98540.41
2023-05-19T18:23:41.442Z,98527.84
2023-05-19T18:26:07.998Z,98524.91
2023-05-19T18:28:35.625Z,98522.81
2023-05-19T18:31:05.980Z,98519.66
2023-05-19T18:33:33.221Z,98513.53
2023-05-19T18:35:59.834Z,98514.78
2023-05-19T18:38:26.408Z,98512.16
2023-05-19T18:40:53.114Z,98512.78
2023-05-19T18:43:19.662Z,98509.59
2023-05-19T18:45:49.178Z,98514.16
2023-05-19T18:48:16.076Z,98514.50
2023-05-19T18:50:44.539Z,98516.41
2023-05-19T18:53:11.763Z,98512.28
2023-05-19T18:55:38.653Z,98511.16
2023-05-19T18:58:06.115Z,98510.31
2023-05-19T19:00:33.116Z,98518.06
2023-05-19T19:03:00.032Z,98508.19
2023-05-19T19:05:26.693Z,98508.94
2023-05-19T19:07:53.412Z,98508.06
2023-05-19T19:10:20.061Z,98511.97
2023-05-19T19:12:46.662Z,98510.75
2023-05-19T19:15:13.227Z,98510.97
2023-05-19T19:17:40.118Z,98512.56
2023-05-19T19:20:08.175Z,98517.19
2023-05-19T19:22:34.791Z,98516.34
2023-05-19T19:25:01.328Z,98520.25
2023-05-19T19:27:31.036Z,98523.41
2023-05-19T19:29:58.608Z,98526.34
2023-05-19T19:32:25.890Z,98525.88
2023-05-19T19:34:53.298Z,98530.38
2023-05-19T19:37:19.865Z,98529.41
2023-05-19T19:39:46.717Z,98532.66
2023-05-19T19:42:13.375Z,98528.59
2023-05-19T19:44:39.987Z,98536.75
2023-05-19T19:47:06.825Z,98536.19
2023-05-19T19:49:33.778Z,98526.56
2023-05-19T19:52:00.319Z,98529.75
2023-05-19T19:54:26.861Z,98526.13
2023-05-19T19:56:53.504Z,98520.38
2023-05-19T19:59:20.063Z,98528.34
2023-05-19T20:01:46.693Z,98522.22
2023-05-19T20:04:13.445Z,98524.91
2023-05-19T20:06:40.119Z,98535.88
2023-05-19T20:09:06.868Z,98527.59
2023-05-19T20:11:33.465Z,98525.91
2023-05-19T20:14:00.033Z,98521.75
2023-05-19T20:16:26.847Z,98523.69
2023-05-19T20:18:53.529Z,98519.53
2023-05-19T20:21:20.097Z,98519.53
2023-05-19T20:23:46.662Z,98532.53
2023-05-19T20:26:13.713Z,98534.25
2023-05-19T20:28:40.627Z,98527.28
2023-05-19T20:31:07.458Z,98525.81
2023-05-19T20:33:34.869Z,98525.94
2023-05-19T20:36:01.410Z,98523.13
2023-05-19T20:38:28.254Z,98522.88
2023-05-19T20:40:54.841Z,98519.31
2023-05-19T20:43:21.569Z,98517.88
2023-05-19T20:45:48.169Z,98521.41
2023-05-19T20:48:17.864Z,98518.72
2023-05-19T20:50:44.537Z,98520.78
2023-05-19T20:53:11.311Z,98523.00
2023-05-19T20:55:38.740Z,98518.97
2023-05-19T20:58:05.534Z,98514.22
2023-05-19T21:00:32.512Z,98514.84
2023-05-19T21:02:59.755Z,98515.94
2023-05-19T21:05:26.464Z,98518.00
2023-05-19T21:07:53.097Z,98514.47
2023-05-19T21:10:19.720Z,98510.31
2023-05-19T21:12:46.734Z,98510.06
2023-05-19T21:15:13.653Z,98513.00
2023-05-19T21:17:40.468Z,98521.28
2023-05-19T21:23:01.852Z,98508.94
2023-05-19T21:25:28.773Z,98500.28
2023-05-19T21:27:55.987Z,98502.34
2023-05-19T21:30:23.503Z,98503.56
2023-05-19T21:32:50.381Z,98501.63
2023-05-19T21:41:02.310Z,98499.63
2023-05-19T21:43:28.876Z,98494.88
2023-05-19T21:45:55.454Z,98493.88
2023-05-19T21:48:22.291Z,98492.28
2023-05-19T21:50:55.446Z,98493.13
2023-05-19T21:53:22.561Z,98489.97
2023-05-19T21:55:49.483Z,98487.78
2023-05-19T21:58:16.177Z,98482.25
2023-05-19T22:00:43.366Z,98481.84
2023-05-19T22:03:09.929Z,98479.88
2023-05-19T22:05:38.057Z,98482.41
2023-05-19T22:08:04.779Z,98473.59
2023-05-19T22:10:31.772Z,98478.19
2023-05-19T22:12:58.869Z,98472.91
2023-05-19T22:15:26.625Z,98476.31
2023-05-19T22:17:53.259Z,98471.78
2023-05-19T22:20:20.008Z,98472.38
2023-05-19T22:22:46.538Z,98468.78
2023-05-19T22:25:13.146Z,98467.19
2023-05-19T22:27:39.807Z,98468.78
2023-05-19T22:30:07.341Z,98478.13
2023-05-19T22:32:35.085Z,98470.78
2023-05-19T22:35:01.738Z,98465.38
2023-05-19T22:37:31.200Z,98466.94
2023-05-19T22:39:57.725Z,98464.00
2023-05-19T22:42:24.416Z,98473.59
2023-05-19T22:44:51.137Z,98468.56
2023-05-19T22:47:17.673Z,98463.44
2023-05-19T22:49:44.289Z,98464.31
2023-05-19T22:52:11.440Z,98467.69
2023-05-19T22:54:38.076Z,98460.63
2023-05-19T22:57:05.174Z,98456.47
2023-05-19T22:59:31.913Z,98459.16
2023-05-19T23:01:58.474Z,98458.34
2023-05-19T23:04:25.165Z,98454.69
2023-05-19T23:06:51.897Z,98457.78
2023-05-19T23:09:18.520Z,98456.88
2023-05-19T23:11:45.339Z,98448.06
2023-05-19T23:14:12.021Z,98452.31
2023-05-19T23:16:38.641Z,98449.66
2023-05-19T23:19:05.521Z,98448.34
2023-05-19T23:21:32.839Z,98448.19
2023-05-19T23:23:59.951Z,98449.81
2023-05-19T23:26:27.362Z,98443.13
2023-05-19T23:28:54.104Z,98445.66
2023-05-19T23:31:20.711Z,98440.81
2023-05-19T23:33:47.272Z,98436.06
2023-05-19T23:36:14.044Z,98441.09
2023-05-19T23:38:40.622Z,98438.16
2023-05-19T23:41:07.181Z,98436.34
2023-05-19T23:43:33.786Z,98431.47
2023-05-19T23:46:00.511Z,98436.34
2023-05-19T23:48:28.928Z,98427.25
2023-05-19T23:50:55.461Z,98428.28
2023-05-19T23:53:22.066Z,98431.22
2023-05-19T23:55:48.600Z,98430.16
2023-05-19T23:58:15.970Z,98431.09
